sensor_id;sensor_type;location;lat;lon;timestamp;temperature;humidity
27823;DHT22;29019;47.630;8.262;2023-12-04T00:03:18;18.90;45.10
27823;DHT22;29019;47.630;8.262;2023-12-04T00:07:18;18.90;45.10
27823;DHT22;29019;47.630;8.262;2023-12-04T00:11:19;18.90;45.00
27823;DHT22;29019;47.630;8.262;2023-12-04T00:15:20;18.90;45.20
27823;DHT22;29019;47.630;8.262;2023-12-04T00:19:21;18.90;45.20
27823;DHT22;29019;47.630;8.262;2023-12-04T00:23:22;18.90;45.10
27823;DHT22;29019;47.630;8.262;2023-12-04T00:27:23;18.90;45.10
27823;DHT22;29019;47.630;8.262;2023-12-04T00:31:27;18.90;45.10
27823;DHT22;29019;47.630;8.262;2023-12-04T00:35:28;18.90;45.10
27823;DHT22;29019;47.630;8.262;2023-12-04T00:39:29;18.90;45.10
27823;DHT22;29019;47.630;8.262;2023-12-04T00:43:29;18.90;45.00
27823;DHT22;29019;47.630;8.262;2023-12-04T00:47:30;18.90;45.10
27823;DHT22;29019;47.630;8.262;2023-12-04T00:51:37;18.90;45.10
27823;DHT22;29019;47.630;8.262;2023-12-04T00:55:38;18.90;45.00
27823;DHT22;29019;47.630;8.262;2023-12-04T00:59:38;18.90;45.00
27823;DHT22;29019;47.630;8.262;2023-12-04T01:03:39;18.90;45.00
27823;DHT22;29019;47.630;8.262;2023-12-04T01:07:40;18.90;45.00
27823;DHT22;29019;47.630;8.262;2023-12-04T01:11:41;18.90;45.00
27823;DHT22;29019;47.630;8.262;2023-12-04T01:15:41;18.80;45.10
27823;DHT22;29019;47.630;8.262;2023-12-04T01:19:43;18.80;45.10
27823;DHT22;29019;47.630;8.262;2023-12-04T01:23:43;18.80;45.00
27823;DHT22;29019;47.630;8.262;2023-12-04T01:27:44;18.80;45.00
27823;DHT22;29019;47.630;8.262;2023-12-04T01:31:45;18.80;45.00
27823;DHT22;29019;47.630;8.262;2023-12-04T01:35:45;18.90;45.00
27823;DHT22;29019;47.630;8.262;2023-12-04T01:39:46;18.90;45.00
27823;DHT22;29019;47.630;8.262;2023-12-04T01:43:47;18.80;45.00
27823;DHT22;29019;47.630;8.262;2023-12-04T01:47:47;18.80;45.00
27823;DHT22;29019;47.630;8.262;2023-12-04T01:51:48;18.80;45.00
27823;DHT22;29019;47.630;8.262;2023-12-04T01:55:49;18.80;44.90
27823;DHT22;29019;47.630;8.262;2023-12-04T01:59:50;18.90;45.00
27823;DHT22;29019;47.630;8.262;2023-12-04T02:03:52;18.90;45.00
27823;DHT22;29019;47.630;8.262;2023-12-04T02:07:53;18.80;44.90
27823;DHT22;29019;47.630;8.262;2023-12-04T02:11:53;18.80;45.00
27823;DHT22;29019;47.630;8.262;2023-12-04T02:15:55;18.80;45.10
27823;DHT22;29019;47.630;8.262;2023-12-04T02:19:59;18.80;45.10
27823;DHT22;29019;47.630;8.262;2023-12-04T02:23:59;18.80;45.00
27823;DHT22;29019;47.630;8.262;2023-12-04T02:28:05;18.80;45.00
27823;DHT22;29019;47.630;8.262;2023-12-04T02:32:08;18.80;45.00
27823;DHT22;29019;47.630;8.262;2023-12-04T02:36:10;18.80;45.00
27823;DHT22;29019;47.630;8.262;2023-12-04T02:40:12;18.80;45.00
27823;DHT22;29019;47.630;8.262;2023-12-04T02:44:14;18.80;44.90
27823;DHT22;29019;47.630;8.262;2023-12-04T02:48:14;18.80;44.90
27823;DHT22;29019;47.630;8.262;2023-12-04T02:52:15;18.80;44.90
27823;DHT22;29019;47.630;8.262;2023-12-04T02:56:16;18.80;44.90
27823;DHT22;29019;47.630;8.262;2023-12-04T03:00:17;18.80;45.00
27823;DHT22;29019;47.630;8.262;2023-12-04T03:04:19;18.80;44.90
27823;DHT22;29019;47.630;8.262;2023-12-04T03:08:20;18.80;44.90
27823;DHT22;29019;47.630;8.262;2023-12-04T03:12:21;18.90;44.90
27823;DHT22;29019;47.630;8.262;2023-12-04T03:16:21;18.80;45.00
27823;DHT22;29019;47.630;8.262;2023-12-04T03:20:22;18.80;44.90
27823;DHT22;29019;47.630;8.262;2023-12-04T03:24:23;18.90;44.80
27823;DHT22;29019;47.630;8.262;2023-12-04T03:28:23;19.00;44.80
27823;DHT22;29019;47.630;8.262;2023-12-04T03:32:24;18.90;44.70
27823;DHT22;29019;47.630;8.262;2023-12-04T03:36:25;18.90;44.70
27823;DHT22;29019;47.630;8.262;2023-12-04T03:40:25;18.90;44.60
27823;DHT22;29019;47.630;8.262;2023-12-04T03:44:26;19.00;44.70
27823;DHT22;29019;47.630;8.262;2023-12-04T03:48:27;19.00;44.70
27823;DHT22;29019;47.630;8.262;2023-12-04T03:52:28;18.90;44.60
27823;DHT22;29019;47.630;8.262;2023-12-04T03:56:28;19.00;44.60
27823;DHT22;29019;47.630;8.262;2023-12-04T04:00:29;18.90;44.50
27823;DHT22;29019;47.630;8.262;2023-12-04T04:04:30;19.00;44.60
27823;DHT22;29019;47.630;8.262;2023-12-04T04:08:30;18.90;44.50
27823;DHT22;29019;47.630;8.262;2023-12-04T04:12:31;19.00;44.60
27823;DHT22;29019;47.630;8.262;2023-12-04T04:16:32;18.90;44.80
27823;DHT22;29019;47.630;8.262;2023-12-04T04:20:32;18.90;44.70
27823;DHT22;29019;47.630;8.262;2023-12-04T04:24:33;18.90;44.70
27823;DHT22;29019;47.630;8.262;2023-12-04T04:28:34;18.90;44.60
27823;DHT22;29019;47.630;8.262;2023-12-04T04:32:34;18.90;44.60
27823;DHT22;29019;47.630;8.262;2023-12-04T04:36:35;19.00;44.60
27823;DHT22;29019;47.630;8.262;2023-12-04T04:40:36;19.00;44.60
27823;DHT22;29019;47.630;8.262;2023-12-04T04:44:36;19.00;44.50
27823;DHT22;29019;47.630;8.262;2023-12-04T04:48:37;18.90;44.50
27823;DHT22;29019;47.630;8.262;2023-12-04T04:52:38;18.90;44.50
27823;DHT22;29019;47.630;8.262;2023-12-04T04:56:39;18.90;44.50
27823;DHT22;29019;47.630;8.262;2023-12-04T05:00:39;19.00;44.60
27823;DHT22;29019;47.630;8.262;2023-12-04T05:04:40;18.90;44.60
27823;DHT22;29019;47.630;8.262;2023-12-04T05:08:41;18.90;44.60
27823;DHT22;29019;47.630;8.262;2023-12-04T05:12:41;18.90;44.60
27823;DHT22;29019;47.630;8.262;2023-12-04T05:16:42;18.90;44.90
27823;DHT22;29019;47.630;8.262;2023-12-04T05:20:43;18.90;44.80
27823;DHT22;29019;47.630;8.262;2023-12-04T05:24:43;18.90;44.70
27823;DHT22;29019;47.630;8.262;2023-12-04T05:28:44;19.00;44.60
27823;DHT22;29019;47.630;8.262;2023-12-04T05:32:45;19.00;44.50
27823;DHT22;29019;47.630;8.262;2023-12-04T05:36:45;19.00;44.40
27823;DHT22;29019;47.630;8.262;2023-12-04T05:40:46;19.10;44.50
27823;DHT22;29019;47.630;8.262;2023-12-04T05:44:47;19.10;44.40
27823;DHT22;29019;47.630;8.262;2023-12-04T05:48:48;19.10;44.50
27823;DHT22;29019;47.630;8.262;2023-12-04T05:52:49;19.10;44.40
27823;DHT22;29019;47.630;8.262;2023-12-04T05:56:50;19.10;44.30
27823;DHT22;29019;47.630;8.262;2023-12-04T06:00:51;19.10;44.30
27823;DHT22;29019;47.630;8.262;2023-12-04T06:04:52;19.10;44.30
27823;DHT22;29019;47.630;8.262;2023-12-04T06:08:52;19.10;44.30
27823;DHT22;29019;47.630;8.262;2023-12-04T06:12:53;19.10;44.30
27823;DHT22;29019;47.630;8.262;2023-12-04T06:16:54;19.10;44.50
27823;DHT22;29019;47.630;8.262;2023-12-04T06:20:54;19.10;44.50
27823;DHT22;29019;47.630;8.262;2023-12-04T06:24:55;19.10;44.50
27823;DHT22;29019;47.630;8.262;2023-12-04T06:28:56;19.10;44.40
27823;DHT22;29019;47.630;8.262;2023-12-04T06:32:57;19.10;44.40
27823;DHT22;29019;47.630;8.262;2023-12-04T06:36:59;19.10;44.30
27823;DHT22;29019;47.630;8.262;2023-12-04T06:41:02;19.10;44.30
27823;DHT22;29019;47.630;8.262;2023-12-04T06:45:03;19.10;44.30
27823;DHT22;29019;47.630;8.262;2023-12-04T06:49:04;19.10;44.30
27823;DHT22;29019;47.630;8.262;2023-12-04T06:53:06;19.10;44.30
27823;DHT22;29019;47.630;8.262;2023-12-04T06:57:07;19.10;44.30
27823;DHT22;29019;47.630;8.262;2023-12-04T07:01:08;19.10;44.40
27823;DHT22;29019;47.630;8.262;2023-12-04T07:05:09;19.10;44.40
27823;DHT22;29019;47.630;8.262;2023-12-04T07:09:09;19.10;44.30
27823;DHT22;29019;47.630;8.262;2023-12-04T07:13:10;19.10;44.30
27823;DHT22;29019;47.630;8.262;2023-12-04T07:17:13;19.10;44.50
27823;DHT22;29019;47.630;8.262;2023-12-04T07:21:14;19.10;44.40
27823;DHT22;29019;47.630;8.262;2023-12-04T07:25:15;19.10;44.40
27823;DHT22;29019;47.630;8.262;2023-12-04T07:29:16;19.10;44.40
27823;DHT22;29019;47.630;8.262;2023-12-04T07:33:17;19.10;44.40
27823;DHT22;29019;47.630;8.262;2023-12-04T07:37:18;19.10;44.30
27823;DHT22;29019;47.630;8.262;2023-12-04T07:41:18;19.10;44.30
27823;DHT22;29019;47.630;8.262;2023-12-04T07:45:19;19.10;44.30
27823;DHT22;29019;47.630;8.262;2023-12-04T07:49:20;19.10;44.30
27823;DHT22;29019;47.630;8.262;2023-12-04T07:53:21;19.10;44.30
27823;DHT22;29019;47.630;8.262;2023-12-04T07:57:23;19.10;44.30
27823;DHT22;29019;47.630;8.262;2023-12-04T08:01:24;19.10;44.30
27823;DHT22;29019;47.630;8.262;2023-12-04T08:05:24;19.10;44.30
27823;DHT22;29019;47.630;8.262;2023-12-04T08:09:25;19.10;44.30
27823;DHT22;29019;47.630;8.262;2023-12-04T08:13:26;19.10;44.40
27823;DHT22;29019;47.630;8.262;2023-12-04T08:17:27;19.10;44.50
27823;DHT22;29019;47.630;8.262;2023-12-04T08:21:27;19.10;44.50
27823;DHT22;29019;47.630;8.262;2023-12-04T08:25:28;19.10;44.40
27823;DHT22;29019;47.630;8.262;2023-12-04T08:29:29;19.10;44.40
27823;DHT22;29019;47.630;8.262;2023-12-04T08:33:29;19.10;44.40
27823;DHT22;29019;47.630;8.262;2023-12-04T08:37:30;19.10;44.40
27823;DHT22;29019;47.630;8.262;2023-12-04T08:41:31;19.10;44.30
27823;DHT22;29019;47.630;8.262;2023-12-04T08:45:32;19.10;44.30
27823;DHT22;29019;47.630;8.262;2023-12-04T08:49:34;19.10;44.30
27823;DHT22;29019;47.630;8.262;2023-12-04T08:53:34;19.10;44.30
27823;DHT22;29019;47.630;8.262;2023-12-04T08:57:35;19.10;44.30
27823;DHT22;29019;47.630;8.262;2023-12-04T09:01:36;19.10;44.30
27823;DHT22;29019;47.630;8.262;2023-12-04T09:05:37;19.10;44.20
27823;DHT22;29019;47.630;8.262;2023-12-04T09:09:38;19.10;44.30
27823;DHT22;29019;47.630;8.262;2023-12-04T09:13:38;19.10;44.30
27823;DHT22;29019;47.630;8.262;2023-12-04T09:17:39;19.10;44.50
27823;DHT22;29019;47.630;8.262;2023-12-04T09:21:40;19.10;44.50
27823;DHT22;29019;47.630;8.262;2023-12-04T09:25:41;19.10;44.50
27823;DHT22;29019;47.630;8.262;2023-12-04T09:29:41;19.10;44.40
27823;DHT22;29019;47.630;8.262;2023-12-04T09:33:42;19.10;44.40
27823;DHT22;29019;47.630;8.262;2023-12-04T09:37:43;19.10;44.40
27823;DHT22;29019;47.630;8.262;2023-12-04T09:41:44;19.10;44.30
27823;DHT22;29019;47.630;8.262;2023-12-04T09:45:47;19.10;44.30
27823;DHT22;29019;47.630;8.262;2023-12-04T09:49:48;19.10;44.30
27823;DHT22;29019;47.630;8.262;2023-12-04T09:53:51;19.20;44.30
27823;DHT22;29019;47.630;8.262;2023-12-04T09:57:55;19.10;44.20
27823;DHT22;29019;47.630;8.262;2023-12-04T10:01:57;19.10;44.30
27823;DHT22;29019;47.630;8.262;2023-12-04T10:05:58;19.10;44.20
27823;DHT22;29019;47.630;8.262;2023-12-04T10:09:59;19.10;44.20
27823;DHT22;29019;47.630;8.262;2023-12-04T10:14:00;19.10;44.40
27823;DHT22;29019;47.630;8.262;2023-12-04T10:18:01;19.10;44.50
27823;DHT22;29019;47.630;8.262;2023-12-04T10:22:01;19.10;44.50
27823;DHT22;29019;47.630;8.262;2023-12-04T10:26:05;19.10;44.50
27823;DHT22;29019;47.630;8.262;2023-12-04T10:30:06;19.10;44.40
27823;DHT22;29019;47.630;8.262;2023-12-04T10:34:07;19.10;44.40
27823;DHT22;29019;47.630;8.262;2023-12-04T10:38:10;19.20;44.50
27823;DHT22;29019;47.630;8.262;2023-12-04T10:42:28;19.10;44.30
27823;DHT22;29019;47.630;8.262;2023-12-04T10:46:35;19.10;44.30
27823;DHT22;29019;47.630;8.262;2023-12-04T10:50:46;19.10;44.30
27823;DHT22;29019;47.630;8.262;2023-12-04T10:55:20;19.10;44.30
27823;DHT22;29019;47.630;8.262;2023-12-04T10:59:27;19.10;44.20
27823;DHT22;29019;47.630;8.262;2023-12-04T11:03:58;19.10;44.20
27823;DHT22;29019;47.630;8.262;2023-12-04T11:08:01;19.10;44.20
27823;DHT22;29019;47.630;8.262;2023-12-04T11:12:06;19.10;44.30
27823;DHT22;29019;47.630;8.262;2023-12-04T11:16:41;19.10;44.50
27823;DHT22;29019;47.630;8.262;2023-12-04T11:20:58;19.10;44.40
27823;DHT22;29019;47.630;8.262;2023-12-04T11:24:59;19.10;44.40
27823;DHT22;29019;47.630;8.262;2023-12-04T11:29:01;19.10;44.40
27823;DHT22;29019;47.630;8.262;2023-12-04T11:33:05;19.10;44.40
27823;DHT22;29019;47.630;8.262;2023-12-04T11:37:05;19.10;44.30
27823;DHT22;29019;47.630;8.262;2023-12-04T11:41:23;19.10;44.30
27823;DHT22;29019;47.630;8.262;2023-12-04T11:45:23;19.10;44.30
27823;DHT22;29019;47.630;8.262;2023-12-04T11:49:29;19.10;44.30
27823;DHT22;29019;47.630;8.262;2023-12-04T11:53:30;19.10;44.30
27823;DHT22;29019;47.630;8.262;2023-12-04T11:57:35;19.10;44.30
27823;DHT22;29019;47.630;8.262;2023-12-04T12:01:37;19.10;44.30
27823;DHT22;29019;47.630;8.262;2023-12-04T12:05:37;19.20;44.30
27823;DHT22;29019;47.630;8.262;2023-12-04T12:09:41;19.20;44.30
27823;DHT22;29019;47.630;8.262;2023-12-04T12:13:42;19.10;44.30
27823;DHT22;29019;47.630;8.262;2023-12-04T12:17:43;19.10;44.50
27823;DHT22;29019;47.630;8.262;2023-12-04T12:21:43;19.10;44.40
27823;DHT22;29019;47.630;8.262;2023-12-04T12:25:44;19.20;44.50
27823;DHT22;29019;47.630;8.262;2023-12-04T12:29:45;19.10;44.40
27823;DHT22;29019;47.630;8.262;2023-12-04T12:33:45;19.10;44.40
27823;DHT22;29019;47.630;8.262;2023-12-04T12:37:46;19.10;44.40
27823;DHT22;29019;47.630;8.262;2023-12-04T12:41:50;19.10;44.50
27823;DHT22;29019;47.630;8.262;2023-12-04T12:45:51;19.10;44.50
27823;DHT22;29019;47.630;8.262;2023-12-04T12:49:52;19.10;44.40
27823;DHT22;29019;47.630;8.262;2023-12-04T12:53:53;19.20;44.50
27823;DHT22;29019;47.630;8.262;2023-12-04T12:57:56;19.20;44.50
27823;DHT22;29019;47.630;8.262;2023-12-04T13:01:58;19.10;44.40
27823;DHT22;29019;47.630;8.262;2023-12-04T13:06:00;19.20;44.40
27823;DHT22;29019;47.630;8.262;2023-12-04T13:10:01;19.10;44.40
27823;DHT22;29019;47.630;8.262;2023-12-04T13:14:05;19.10;44.50
27823;DHT22;29019;47.630;8.262;2023-12-04T13:18:06;19.10;44.60
27823;DHT22;29019;47.630;8.262;2023-12-04T13:22:06;19.10;44.60
27823;DHT22;29019;47.630;8.262;2023-12-04T13:26:08;19.10;44.60
27823;DHT22;29019;47.630;8.262;2023-12-04T13:30:11;19.10;44.50
27823;DHT22;29019;47.630;8.262;2023-12-04T13:34:11;19.10;44.50
27823;DHT22;29019;47.630;8.262;2023-12-04T13:38:12;19.10;44.40
27823;DHT22;29019;47.630;8.262;2023-12-04T13:42:16;19.10;44.50
27823;DHT22;29019;47.630;8.262;2023-12-04T13:46:35;19.10;44.50
27823;DHT22;29019;47.630;8.262;2023-12-04T13:50:37;19.10;44.50
27823;DHT22;29019;47.630;8.262;2023-12-04T13:54:38;19.10;44.50
27823;DHT22;29019;47.630;8.262;2023-12-04T13:58:48;19.10;44.50
27823;DHT22;29019;47.630;8.262;2023-12-04T14:02:54;19.10;44.50
27823;DHT22;29019;47.630;8.262;2023-12-04T14:07:04;19.10;44.50
27823;DHT22;29019;47.630;8.262;2023-12-04T14:11:05;19.10;44.40
27823;DHT22;29019;47.630;8.262;2023-12-04T14:15:06;19.10;44.60
27823;DHT22;29019;47.630;8.262;2023-12-04T14:19:07;19.10;44.60
27823;DHT22;29019;47.630;8.262;2023-12-04T14:23:07;19.10;44.60
27823;DHT22;29019;47.630;8.262;2023-12-04T14:27:08;19.10;44.60
27823;DHT22;29019;47.630;8.262;2023-12-04T14:31:10;19.10;44.60
27823;DHT22;29019;47.630;8.262;2023-12-04T14:35:11;19.10;44.50
27823;DHT22;29019;47.630;8.262;2023-12-04T14:39:13;19.10;44.40
27823;DHT22;29019;47.630;8.262;2023-12-04T14:43:17;19.10;44.90
27823;DHT22;29019;47.630;8.262;2023-12-04T14:47:18;19.10;44.40
27823;DHT22;29019;47.630;8.262;2023-12-04T14:51:19;19.10;44.30
27823;DHT22;29019;47.630;8.262;2023-12-04T14:55:20;19.10;44.40
27823;DHT22;29019;47.630;8.262;2023-12-04T14:59:23;19.10;44.40
27823;DHT22;29019;47.630;8.262;2023-12-04T15:03:24;19.10;44.30
27823;DHT22;29019;47.630;8.262;2023-12-04T15:07:25;19.10;44.40
27823;DHT22;29019;47.630;8.262;2023-12-04T15:11:44;19.10;44.40
27823;DHT22;29019;47.630;8.262;2023-12-04T15:15:47;19.10;44.60
27823;DHT22;29019;47.630;8.262;2023-12-04T15:20:00;19.10;44.60
27823;DHT22;29019;47.630;8.262;2023-12-04T15:24:10;19.10;44.50
27823;DHT22;29019;47.630;8.262;2023-12-04T15:28:11;19.10;44.40
27823;DHT22;29019;47.630;8.262;2023-12-04T15:32:12;19.10;44.40
27823;DHT22;29019;47.630;8.262;2023-12-04T15:36:13;19.20;44.40
27823;DHT22;29019;47.630;8.262;2023-12-04T15:40:14;19.20;44.40
27823;DHT22;29019;47.630;8.262;2023-12-04T15:44:14;19.10;44.30
27823;DHT22;29019;47.630;8.262;2023-12-04T15:48:15;19.10;44.30
27823;DHT22;29019;47.630;8.262;2023-12-04T15:52:16;19.10;44.30
27823;DHT22;29019;47.630;8.262;2023-12-04T15:56:19;19.10;44.20
27823;DHT22;29019;47.630;8.262;2023-12-04T16:00:25;19.10;44.30
27823;DHT22;29019;47.630;8.262;2023-12-04T16:04:25;19.10;44.20
27823;DHT22;29019;47.630;8.262;2023-12-04T16:08:26;19.10;44.30
27823;DHT22;29019;47.630;8.262;2023-12-04T16:12:27;19.10;44.30
27823;DHT22;29019;47.630;8.262;2023-12-04T16:16:28;19.10;44.50
27823;DHT22;29019;47.630;8.262;2023-12-04T16:20:28;19.10;44.50
27823;DHT22;29019;47.630;8.262;2023-12-04T16:24:29;19.10;44.50
27823;DHT22;29019;47.630;8.262;2023-12-04T16:28:30;19.10;44.50
27823;DHT22;29019;47.630;8.262;2023-12-04T16:32:30;19.10;44.40
27823;DHT22;29019;47.630;8.262;2023-12-04T16:36:31;19.10;44.30
27823;DHT22;29019;47.630;8.262;2023-12-04T16:40:32;19.10;44.30
27823;DHT22;29019;47.630;8.262;2023-12-04T16:44:33;19.10;44.30
27823;DHT22;29019;47.630;8.262;2023-12-04T16:48:33;19.10;44.30
27823;DHT22;29019;47.630;8.262;2023-12-04T16:52:34;19.10;44.40
27823;DHT22;29019;47.630;8.262;2023-12-04T16:56:35;19.10;44.30
27823;DHT22;29019;47.630;8.262;2023-12-04T17:00:35;19.10;44.30
27823;DHT22;29019;47.630;8.262;2023-12-04T17:04:36;19.00;44.30
27823;DHT22;29019;47.630;8.262;2023-12-04T17:08:37;19.00;44.30
27823;DHT22;29019;47.630;8.262;2023-12-04T17:12:38;19.00;44.40
27823;DHT22;29019;47.630;8.262;2023-12-04T17:16:44;19.00;44.60
27823;DHT22;29019;47.630;8.262;2023-12-04T17:20:45;19.00;44.50
27823;DHT22;29019;47.630;8.262;2023-12-04T17:24:46;19.10;44.50
27823;DHT22;29019;47.630;8.262;2023-12-04T17:28:47;19.10;44.40
27823;DHT22;29019;47.630;8.262;2023-12-04T17:32:47;19.10;44.40
27823;DHT22;29019;47.630;8.262;2023-12-04T17:36:48;19.10;44.90
27823;DHT22;29019;47.630;8.262;2023-12-04T17:40:49;19.10;44.30
27823;DHT22;29019;47.630;8.262;2023-12-04T17:44:49;19.10;44.30
27823;DHT22;29019;47.630;8.262;2023-12-04T17:48:50;19.10;44.30
27823;DHT22;29019;47.630;8.262;2023-12-04T17:52:51;19.10;44.30
27823;DHT22;29019;47.630;8.262;2023-12-04T17:56:51;19.10;44.30
27823;DHT22;29019;47.630;8.262;2023-12-04T18:00:52;19.10;44.30
27823;DHT22;29019;47.630;8.262;2023-12-04T18:04:53;19.00;44.30
27823;DHT22;29019;47.630;8.262;2023-12-04T18:08:54;19.00;44.40
27823;DHT22;29019;47.630;8.262;2023-12-04T18:12:54;19.00;44.40
27823;DHT22;29019;47.630;8.262;2023-12-04T18:16:55;19.00;44.60
27823;DHT22;29019;47.630;8.262;2023-12-04T18:20:56;19.10;44.50
27823;DHT22;29019;47.630;8.262;2023-12-04T18:24:57;19.10;44.40
27823;DHT22;29019;47.630;8.262;2023-12-04T18:28:58;19.10;44.90
27823;DHT22;29019;47.630;8.262;2023-12-04T18:32:59;19.10;44.30
27823;DHT22;29019;47.630;8.262;2023-12-04T18:37:10;19.10;44.30
27823;DHT22;29019;47.630;8.262;2023-12-04T18:41:12;19.10;44.30
27823;DHT22;29019;47.630;8.262;2023-12-04T18:45:14;19.10;44.30
27823;DHT22;29019;47.630;8.262;2023-12-04T18:49:14;19.10;44.30
27823;DHT22;29019;47.630;8.262;2023-12-04T18:53:17;19.10;44.30
27823;DHT22;29019;47.630;8.262;2023-12-04T18:57:19;19.10;44.20
27823;DHT22;29019;47.630;8.262;2023-12-04T19:01:20;19.10;44.20
27823;DHT22;29019;47.630;8.262;2023-12-04T19:05:21;19.10;44.20
27823;DHT22;29019;47.630;8.262;2023-12-04T19:09:23;19.10;44.20
27823;DHT22;29019;47.630;8.262;2023-12-04T19:13:23;19.10;44.30
27823;DHT22;29019;47.630;8.262;2023-12-04T19:17:24;19.10;44.50
27823;DHT22;29019;47.630;8.262;2023-12-04T19:21:25;19.10;44.40
27823;DHT22;29019;47.630;8.262;2023-12-04T19:25:26;19.10;44.40
27823;DHT22;29019;47.630;8.262;2023-12-04T19:29:27;19.10;44.30
27823;DHT22;29019;47.630;8.262;2023-12-04T19:33:28;19.10;44.30
27823;DHT22;29019;47.630;8.262;2023-12-04T19:37:30;19.10;44.30
27823;DHT22;29019;47.630;8.262;2023-12-04T19:41:31;19.10;44.30
27823;DHT22;29019;47.630;8.262;2023-12-04T19:45:32;19.10;44.40
27823;DHT22;29019;47.630;8.262;2023-12-04T19:49:32;19.10;44.40
27823;DHT22;29019;47.630;8.262;2023-12-04T19:53:34;19.10;44.40
27823;DHT22;29019;47.630;8.262;2023-12-04T19:57:35;19.10;44.40
27823;DHT22;29019;47.630;8.262;2023-12-04T20:01:35;19.10;44.40
27823;DHT22;29019;47.630;8.262;2023-12-04T20:05:36;19.10;44.30
27823;DHT22;29019;47.630;8.262;2023-12-04T20:09:37;19.10;44.20
27823;DHT22;29019;47.630;8.262;2023-12-04T20:13:38;19.10;44.30
27823;DHT22;29019;47.630;8.262;2023-12-04T20:17:39;19.10;44.50
27823;DHT22;29019;47.630;8.262;2023-12-04T20:21:40;19.10;44.40
27823;DHT22;29019;47.630;8.262;2023-12-04T20:25:43;19.10;44.50
27823;DHT22;29019;47.630;8.262;2023-12-04T20:29:43;19.10;44.40
27823;DHT22;29019;47.630;8.262;2023-12-04T20:33:44;19.10;44.40
27823;DHT22;29019;47.630;8.262;2023-12-04T20:37:45;19.10;44.30
27823;DHT22;29019;47.630;8.262;2023-12-04T20:41:45;19.10;44.30
27823;DHT22;29019;47.630;8.262;2023-12-04T20:45:46;19.10;44.30
27823;DHT22;29019;47.630;8.262;2023-12-04T20:49:48;19.10;44.30
27823;DHT22;29019;47.630;8.262;2023-12-04T20:53:49;19.10;44.40
27823;DHT22;29019;47.630;8.262;2023-12-04T20:57:50;19.10;44.40
27823;DHT22;29019;47.630;8.262;2023-12-04T21:01:51;19.10;44.40
27823;DHT22;29019;47.630;8.262;2023-12-04T21:05:51;19.10;44.40
27823;DHT22;29019;47.630;8.262;2023-12-04T21:09:52;19.10;44.40
27823;DHT22;29019;47.630;8.262;2023-12-04T21:13:53;19.10;44.40
27823;DHT22;29019;47.630;8.262;2023-12-04T21:17:54;19.00;44.50
27823;DHT22;29019;47.630;8.262;2023-12-04T21:21:54;19.10;44.50
27823;DHT22;29019;47.630;8.262;2023-12-04T21:25:55;19.10;44.40
27823;DHT22;29019;47.630;8.262;2023-12-04T21:29:58;19.10;44.40
27823;DHT22;29019;47.630;8.262;2023-12-04T21:33:58;19.10;44.30
27823;DHT22;29019;47.630;8.262;2023-12-04T21:37:59;19.10;44.30
27823;DHT22;29019;47.630;8.262;2023-12-04T21:42:00;19.10;44.30
27823;DHT22;29019;47.630;8.262;2023-12-04T21:46:01;19.10;44.30
27823;DHT22;29019;47.630;8.262;2023-12-04T21:50:03;19.10;44.30
27823;DHT22;29019;47.630;8.262;2023-12-04T21:54:04;19.10;44.30
27823;DHT22;29019;47.630;8.262;2023-12-04T21:58:04;19.10;44.20
27823;DHT22;29019;47.630;8.262;2023-12-04T22:02:05;19.20;44.30
27823;DHT22;29019;47.630;8.262;2023-12-04T22:06:06;19.10;44.30
27823;DHT22;29019;47.630;8.262;2023-12-04T22:10:07;19.10;44.30
27823;DHT22;29019;47.630;8.262;2023-12-04T22:14:08;19.10;44.40
27823;DHT22;29019;47.630;8.262;2023-12-04T22:18:09;19.00;44.60
27823;DHT22;29019;47.630;8.262;2023-12-04T22:22:10;19.00;44.60
27823;DHT22;29019;47.630;8.262;2023-12-04T22:26:12;19.00;44.60
27823;DHT22;29019;47.630;8.262;2023-12-04T22:30:12;19.00;44.50
27823;DHT22;29019;47.630;8.262;2023-12-04T22:34:14;19.00;44.60
27823;DHT22;29019;47.630;8.262;2023-12-04T22:38:14;19.00;44.60
27823;DHT22;29019;47.630;8.262;2023-12-04T22:42:15;19.00;44.60
27823;DHT22;29019;47.630;8.262;2023-12-04T22:46:16;19.00;44.60
27823;DHT22;29019;47.630;8.262;2023-12-04T22:50:17;19.00;44.60
27823;DHT22;29019;47.630;8.262;2023-12-04T22:54:17;19.00;44.60
27823;DHT22;29019;47.630;8.262;2023-12-04T22:58:18;19.00;44.60
27823;DHT22;29019;47.630;8.262;2023-12-04T23:02:19;19.00;44.60
27823;DHT22;29019;47.630;8.262;2023-12-04T23:06:20;19.00;44.70
27823;DHT22;29019;47.630;8.262;2023-12-04T23:10:21;19.00;44.60
27823;DHT22;29019;47.630;8.262;2023-12-04T23:14:22;18.90;44.70
27823;DHT22;29019;47.630;8.262;2023-12-04T23:18:23;18.90;44.90
27823;DHT22;29019;47.630;8.262;2023-12-04T23:22:24;18.90;44.80
27823;DHT22;29019;47.630;8.262;2023-12-04T23:26:24;19.00;44.80
27823;DHT22;29019;47.630;8.262;2023-12-04T23:30:25;18.90;44.80
27823;DHT22;29019;47.630;8.262;2023-12-04T23:34:26;19.00;44.80
27823;DHT22;29019;47.630;8.262;2023-12-04T23:38:28;19.00;44.80
27823;DHT22;29019;47.630;8.262;2023-12-04T23:42:28;18.90;44.80
27823;DHT22;29019;47.630;8.262;2023-12-04T23:46:29;18.90;44.80
27823;DHT22;29019;47.630;8.262;2023-12-04T23:50:30;18.90;44.80
27823;DHT22;29019;47.630;8.262;2023-12-04T23:54:30;18.90;44.80
27823;DHT22;29019;47.630;8.262;2023-12-04T23:58:31;18.90;44.80
